18 Jun 2019 02:37 UTC 2019169+02:37 UTC

Overview Datums Bench Marks Data Query Site Visit Daily QC Messages Attributes

042: Nueces Delta 2

27° 53' 19" N   97° 34' 10" W
NUDE2
The Coastal Bend Bays & Estuaries Program Coastal Bend Bays and Estuaries Program

Station Information

Nueces Delta 2
Nueces Delta 2
more pictures
 
Station Name:Nueces Delta 2
DNR ID:042
Location:27° 53' 19" N, 97° 34' 10" W

Water Level Forecasts

Latest Observations

Series Metric English Marine Observed at
Water Temperature 31.0 °C 87.8 °F 87.8 °F Jun 17 21:24 CDT
00h06m ago
Salinity 17.700 psu 17.700 psu 17.700 psu Jun 17 21:24 CDT
00h06m ago

Maps

Nueces Delta 2
All Stations in Area
Entire Network
 

Recent Observations

Date/Time Water
Temp (°F)
Sal (psu)
Jun 17 21:00 CDT 88.3 17.500
Jun 17 20:00 CDT 89.6 17.600
Jun 17 19:00 CDT 90.5 17.700
Jun 17 18:00 CDT 91.6 17.600
Jun 17 17:00 CDT 91.2 17.700
Jun 17 16:00 CDT 90.3 17.700
Jun 17 15:00 CDT 88.3 18.000
Jun 17 14:00 CDT 84.0 18.100
Jun 17 13:00 CDT 83.7 18.000
Jun 17 12:00 CDT 82.9 18.000
Jun 17 11:00 CDT 81.5 18.000
Jun 17 10:00 CDT 80.6 18.000
Jun 17 09:00 CDT 80.1 18.000
Jun 17 08:00 CDT 79.9 18.100
Jun 17 07:00 CDT 80.2 18.000
Jun 17 06:00 CDT 81.3 18.300
Jun 17 05:00 CDT 81.5 18.400
Jun 17 04:00 CDT 82.2 18.200
Jun 17 03:00 CDT 83.3 18.000
Jun 17 02:00 CDT 83.5 18.100
Jun 17 01:00 CDT 83.7 18.200
Jun 17 00:00 CDT 84.2 18.100
Jun 16 23:00 CDT 84.7 18.100
Jun 16 22:00 CDT 85.6 18.300
Jun 16 21:00 CDT 86.7 18.000

Historical Data Availability